Time;durP1;ratioP1;P1;durP2;ratioP2;P2;SDS_P1;SDS_P2;PMS_P1;PMS_P2;Temp;Humidity;BMP_temperature;BMP_pressure;BME280_temperature;BME280_humidity;BME280_pressure;Samples;Min_cycle;Max_cycle;Signal;HPM_P1;HPM_P2
2023/09/27 02:07:48;;;;;;;13.00;8.30;;;;;;;17.60;100.00;101887.02;105921;1265;72472;-84
2023/09/27 02:10:15;;;;;;;14.70;8.70;;;;;;;17.61;100.00;101886.30;105991;1264;61346;-85
2023/09/27 02:12:42;;;;;;;14.00;8.70;;;;;;;17.62;100.00;101885.62;105986;1263;60860;-86
2023/09/27 02:15:12;;;;;;;14.90;8.30;;;;;;;17.55;100.00;101891.38;106177;1257;73186;-86
2023/09/27 02:17:40;;;;;;;12.90;8.10;;;;;;;17.50;100.00;101889.62;106212;1262;68686;-85
2023/09/27 02:20:09;;;;;;;15.60;9.10;;;;;;;17.53;100.00;101890.95;106147;1261;71401;-85
2023/09/27 02:22:37;;;;;;;14.60;9.30;;;;;;;17.53;100.00;101886.92;106134;1264;61273;-85
2023/09/27 02:25:09;;;;;;;17.50;8.90;;;;;;;17.52;100.00;101889.09;106025;1263;61175;-86
2023/09/27 02:27:36;;;;;;;14.10;9.00;;;;;;;17.54;100.00;101889.45;106195;1262;74431;-86
2023/09/27 02:30:06;;;;;;;13.80;8.50;;;;;;;17.51;100.00;101892.87;105966;1259;68569;-83
2023/09/27 02:32:34;;;;;;;14.20;8.70;;;;;;;17.43;100.00;101899.08;106028;1260;72548;-85
2023/09/27 02:35:02;;;;;;;15.20;9.50;;;;;;;17.34;100.00;101901.36;106133;1260;61180;-85
2023/09/27 02:37:30;;;;;;;15.80;8.80;;;;;;;17.22;100.00;101904.11;106241;1258;61406;-84
2023/09/27 02:39:57;;;;;;;14.10;8.90;;;;;;;17.15;100.00;101903.23;106087;1263;74639;-86
2023/09/27 02:42:25;;;;;;;13.70;8.40;;;;;;;17.06;100.00;101900.38;106111;1263;67196;-86
2023/09/27 02:44:53;;;;;;;12.50;8.10;;;;;;;17.06;100.00;101900.83;107258;1257;72378;-86
2023/09/27 02:47:20;;;;;;;14.30;7.70;;;;;;;17.11;100.00;101899.06;108665;1257;61106;-84
2023/09/27 02:49:47;;;;;;;12.70;8.00;;;;;;;17.10;100.00;101900.23;107617;1257;61225;-84
2023/09/27 02:52:14;;;;;;;11.90;7.60;;;;;;;17.08;100.00;101896.33;106926;1258;73324;-84
2023/09/27 02:54:41;;;;;;;13.90;8.50;;;;;;;17.02;100.00;101900.79;106176;1262;67555;-86
2023/09/27 02:57:08;;;;;;;14.10;8.70;;;;;;;16.98;100.00;101898.78;106008;1257;72404;-84
2023/09/27 02:59:35;;;;;;;16.30;9.00;;;;;;;17.12;100.00;101896.14;105945;1262;61280;-84
2023/09/27 03:02:03;;;;;;;16.10;9.50;;;;;;;17.21;100.00;101894.63;106153;1260;61237;-84
2023/09/27 03:04:31;;;;;;;15.00;9.30;;;;;;;17.27;100.00;101896.45;106239;1257;73387;-85
2023/09/27 03:06:59;;;;;;;11.70;8.10;;;;;;;17.27;100.00;101904.48;106196;1260;68575;-86
2023/09/27 03:09:26;;;;;;;12.60;8.20;;;;;;;17.28;100.00;101895.06;106172;1258;72421;-84
2023/09/27 03:11:53;;;;;;;13.30;8.00;;;;;;;17.24;100.00;101896.37;106219;1260;61330;-84
2023/09/27 03:14:20;;;;;;;13.50;8.10;;;;;;;17.17;100.00;101900.51;106057;1261;61337;-84
2023/09/27 03:16:47;;;;;;;14.90;8.70;;;;;;;17.11;100.00;101900.29;106230;1261;72711;-83
2023/09/27 03:19:14;;;;;;;14.70;8.30;;;;;;;17.07;100.00;101893.91;106088;1257;68561;-85
2023/09/27 03:21:41;;;;;;;13.70;8.80;;;;;;;17.04;100.00;101895.81;106029;1262;72459;-85
2023/09/27 03:24:08;;;;;;;16.50;8.70;;;;;;;17.02;100.00;101895.92;106006;1258;61273;-85
2023/09/27 03:26:36;;;;;;;15.90;8.20;;;;;;;16.95;100.00;101895.16;105965;1260;59914;-85
2023/09/27 03:29:04;;;;;;;15.50;8.50;;;;;;;16.93;100.00;101894.07;106120;1257;73059;-83
2023/09/27 03:31:31;;;;;;;13.80;8.60;;;;;;;16.85;100.00;101899.37;106066;1263;69043;-85
2023/09/27 03:33:59;;;;;;;13.90;8.50;;;;;;;16.75;100.00;101902.61;106180;1260;72736;-83
2023/09/27 03:36:28;;;;;;;16.80;9.00;;;;;;;16.76;100.00;101904.09;105946;1262;61232;-85
2023/09/27 03:38:55;;;;;;;17.90;9.50;;;;;;;16.75;100.00;101901.29;106067;1262;61104;-85
2023/09/27 03:41:22;;;;;;;16.70;9.40;;;;;;;16.73;100.00;101904.55;105991;1262;74612;-86
2023/09/27 03:43:50;;;;;;;12.80;8.70;;;;;;;16.82;100.00;101908.05;106023;1257;67113;-83
2023/09/27 03:46:18;;;;;;;13.30;8.20;;;;;;;16.86;100.00;101908.64;106169;1258;72771;-85
2023/09/27 03:48:44;;;;;;;16.50;9.50;;;;;;;16.80;100.00;101912.42;106182;1264;61246;-86
2023/09/27 03:51:11;;;;;;;15.20;9.30;;;;;;;16.82;100.00;101910.88;105862;1260;61339;-84
2023/09/27 03:53:38;;;;;;;13.90;8.60;;;;;;;16.85;100.00;101914.77;106243;1261;74656;-84
2023/09/27 03:56:05;;;;;;;14.10;8.80;;;;;;;16.89;100.00;101907.84;106525;1260;67788;-86
2023/09/27 03:58:32;;;;;;;14.20;8.60;;;;;;;16.90;100.00;101907.29;106244;1257;71277;-84
2023/09/27 04:00:59;;;;;;;12.50;7.60;;;;;;;16.96;100.00;101908.29;106079;1263;62127;-84
2023/09/27 04:03:27;;;;;;;14.90;8.20;;;;;;;16.90;100.00;101911.80;106087;1262;61189;-84
2023/09/27 04:05:56;;;;;;;14.40;8.50;;;;;;;16.81;100.00;101909.89;106080;1257;74616;-86
2023/09/27 04:08:24;;;;;;;13.60;8.80;;;;;;;16.79;100.00;101911.93;106209;1260;69044;-86
2023/09/27 04:10:51;;;;;;;20.80;10.90;;;;;;;16.74;100.00;101911.17;107050;1257;72468;-86
2023/09/27 04:13:18;;;;;;;21.00;13.00;;;;;;;16.74;100.00;101919.84;105960;1257;62084;-85
2023/09/27 04:15:49;;;;;;;19.70;12.60;;;;;;;16.72;100.00;101918.45;106064;1257;61350;-84
2023/09/27 04:18:16;;;;;;;18.50;11.70;;;;;;;16.77;100.00;101919.40;106049;1257;74927;-85
2023/09/27 04:20:43;;;;;;;23.70;14.80;;;;;;;16.81;100.00;101915.13;105958;1260;211954;-84
2023/09/27 04:23:10;;;;;;;21.60;12.70;;;;;;;16.86;100.00;101910.23;106452;1257;72539;-84
2023/09/27 04:25:37;;;;;;;21.70;12.80;;;;;;;17.00;100.00;101908.99;106089;1257;61374;-85
2023/09/27 04:28:05;;;;;;;21.30;14.00;;;;;;;17.09;100.00;101909.58;107420;1257;61331;-86
2023/09/27 04:30:32;;;;;;;23.20;13.10;;;;;;;17.19;100.00;101908.83;106042;1257;74660;-84
2023/09/27 04:33:00;;;;;;;17.90;11.90;;;;;;;17.30;100.00;101908.52;106208;1257;67398;-84
2023/09/27 04:35:27;;;;;;;20.60;12.30;;;;;;;17.40;100.00;101911.98;105869;1257;72689;-84
2023/09/27 04:37:54;;;;;;;18.10;12.20;;;;;;;17.39;100.00;101912.42;105930;1257;61187;-85
2023/09/27 04:40:21;;;;;;;20.00;13.30;;;;;;;17.52;100.00;101913.36;106094;1257;61186;-84
2023/09/27 04:42:48;;;;;;;19.30;13.10;;;;;;;17.70;100.00;101917.10;106296;1257;74548;-85
2023/09/27 04:45:15;;;;;;;21.90;12.80;;;;;;;17.83;100.00;101909.58;105938;1263;68970;-84
2023/09/27 04:47:44;;;;;;;19.90;12.00;;;;;;;17.99;100.00;101913.63;106059;1259;72451;-83
2023/09/27 04:50:11;;;;;;;18.80;12.50;;;;;;;18.07;100.00;101913.98;105997;1262;61246;-85
2023/09/27 04:52:39;;;;;;;19.80;11.50;;;;;;;18.25;100.00;101915.87;106192;1257;61142;-84
2023/09/27 04:55:08;;;;;;;22.60;12.30;;;;;;;18.40;100.00;101910.69;106042;1257;73493;-84
2023/09/27 04:57:35;;;;;;;18.90;12.10;;;;;;;18.52;100.00;101910.59;106324;1256;68398;-85
2023/09/27 05:00:04;;;;;;;18.60;11.70;;;;;;;18.64;100.00;101910.57;105852;1262;72635;-85
2023/09/27 05:02:31;;;;;;;19.70;11.50;;;;;;;18.77;100.00;101913.58;107356;1257;60633;-84
2023/09/27 05:04:58;;;;;;;21.70;13.40;;;;;;;18.92;100.00;101914.36;105841;1262;61263;-84
2023/09/27 05:07:25;;;;;;;32.40;12.30;;;;;;;19.11;100.00;101915.49;105915;1257;73440;-84
2023/09/27 05:09:52;;;;;;;23.70;12.10;;;;;;;19.33;100.00;101913.59;105925;1257;69216;-84
2023/09/27 05:12:19;;;;;;;25.40;13.00;;;;;;;19.48;100.00;101915.94;106202;1257;72646;-84
2023/09/27 05:14:46;;;;;;;26.20;12.50;;;;;;;19.62;100.00;101916.80;106028;1257;61920;-84
2023/09/27 05:17:14;;;;;;;20.70;12.30;;;;;;;19.75;100.00;101922.35;105948;1258;61379;-84
2023/09/27 05:19:41;;;;;;;23.80;12.70;;;;;;;19.90;100.00;101920.79;107461;1257;74659;-84
2023/09/27 05:22:08;;;;;;;23.50;11.70;;;;;;;20.09;100.00;101922.70;106198;1257;67473;-84
2023/09/27 05:24:38;;;;;;;19.30;12.40;;;;;;;20.25;100.00;101922.27;106089;1258;71455;-85
2023/09/27 05:27:06;;;;;;;19.30;12.30;;;;;;;20.42;100.00;101921.29;106014;1257;61183;-84
2023/09/27 05:29:34;;;;;;;25.50;12.70;;;;;;;20.64;100.00;101922.88;106317;1257;61132;-84
2023/09/27 05:32:02;;;;;;;23.70;13.40;;;;;;;20.89;100.00;101917.50;106086;1257;74483;-84
2023/09/27 05:34:30;;;;;;;19.80;12.40;;;;;;;21.09;100.00;101923.64;107152;1257;68906;-84
2023/09/27 05:36:57;;;;;;;21.00;12.50;;;;;;;21.32;100.00;101917.48;105994;1257;72766;-84
2023/09/27 05:39:25;;;;;;;19.80;12.60;;;;;;;21.58;100.00;101916.14;106123;1263;61936;-84
2023/09/27 05:41:52;;;;;;;20.70;13.00;;;;;;;21.78;100.00;101915.59;105895;1262;61244;-84
2023/09/27 05:44:19;;;;;;;21.00;12.30;;;;;;;21.99;100.00;101920.69;105946;1258;74490;-85
2023/09/27 05:46:46;;;;;;;19.60;13.10;;;;;;;22.19;100.00;101917.53;105971;1257;68421;-85
2023/09/27 05:49:15;;;;;;;21.40;13.00;;;;;;;22.29;100.00;101920.11;106549;1260;71235;-85
2023/09/27 05:51:43;;;;;;;20.50;13.00;;;;;;;22.38;100.00;101920.54;105905;1258;61330;-85
2023/09/27 05:54:10;;;;;;;20.80;12.60;;;;;;;22.57;100.00;101919.02;106113;1257;61357;-84
2023/09/27 05:56:37;;;;;;;19.40;12.60;;;;;;;22.78;100.00;101920.93;105966;1259;74815;-84
2023/09/27 05:59:08;;;;;;;25.60;12.80;;;;;;;22.88;100.00;101919.79;106314;1258;68467;-84
2023/09/27 06:01:36;;;;;;;20.30;12.10;;;;;;;23.00;100.00;101917.41;106087;1257;71716;-84
2023/09/27 06:04:03;;;;;;;21.70;12.90;;;;;;;23.12;100.00;101918.85;106604;1257;61425;-84
2023/09/27 06:06:30;;;;;;;23.20;12.70;;;;;;;23.25;100.00;101922.68;106087;1262;61233;-86
2023/09/27 06:08:58;;;;;;;18.30;11.90;;;;;;;23.34;100.00;101920.44;105915;1260;74505;-84
2023/09/27 06:11:25;;;;;;;20.60;12.10;;;;;;;23.48;100.00;101924.58;106194;1257;68467;-84
2023/09/27 06:13:52;;;;;;;19.80;12.10;;;;;;;23.63;100.00;101926.96;105876;1262;71451;-85
2023/09/27 06:16:19;;;;;;;16.00;10.70;;;;;;;23.82;100.00;101927.33;105965;1258;61778;-86
2023/09/27 06:18:47;;;;;;;20.10;11.90;;;;;;;23.98;100.00;101926.98;106059;1259;60534;-85
2023/09/27 06:21:13;;;;;;;17.60;11.20;;;;;;;24.17;100.00;101928.63;106084;1257;74532;-85
2023/09/27 06:23:41;;;;;;;25.20;12.40;;;;;;;24.34;100.00;101929.55;105948;1257;68741;-86
2023/09/27 06:26:09;;;;;;;22.40;11.10;;;;;;;24.42;100.00;101929.57;107146;1256;72465;-85
2023/09/27 06:28:38;;;;;;;21.10;11.10;;;;;;;24.56;99.90;101928.19;106032;1261;61225;-85
2023/09/27 06:31:08;;;;;;;20.90;11.90;;;;;;;24.70;98.88;101929.02;106115;1257;61235;-85
2023/09/27 06:33:44;;;;;;;19.60;11.60;;;;;;;24.83;97.01;101929.51;106319;1257;74404;-85
2023/09/27 06:36:11;;;;;;;18.10;11.50;;;;;;;24.98;94.08;101929.41;106773;1258;61222;-86
2023/09/27 06:38:39;;;;;;;18.80;11.70;;;;;;;25.06;92.21;101932.44;106129;1258;72534;-85
2023/09/27 06:41:11;;;;;;;15.90;10.70;;;;;;;25.15;89.22;101932.20;108265;1257;61218;-86
2023/09/27 06:43:38;;;;;;;18.90;10.80;;;;;;;25.21;88.02;101938.23;106298;1257;61280;-85
2023/09/27 06:46:10;;;;;;;21.40;10.90;;;;;;;25.29;87.79;101937.48;106164;1258;65825;-84
2023/09/27 06:48:37;;;;;;;17.30;9.90;;;;;;;25.45;86.00;101937.15;105899;1263;61212;-86
2023/09/27 06:51:05;;;;;;;18.60;11.00;;;;;;;25.56;86.03;101937.54;105957;1261;71642;-86
2023/09/27 06:53:33;;;;;;;18.70;10.70;;;;;;;25.73;84.43;101941.02;106218;1257;61336;-86
2023/09/27 06:56:02;;;;;;;18.60;11.30;;;;;;;25.93;81.58;101945.70;105951;1257;61128;-87
2023/09/27 06:58:30;;;;;;;17.10;10.50;;;;;;;26.06;80.46;101946.79;106233;1257;66015;-85
2023/09/27 07:00:57;;;;;;;18.20;11.00;;;;;;;26.17;78.79;101943.33;106077;1257;61084;-85
2023/09/27 07:03:24;;;;;;;20.10;11.10;;;;;;;26.28;77.64;101944.09;106061;1259;63870;-86
2023/09/27 07:05:53;;;;;;;16.20;10.80;;;;;;;26.39;76.04;101940.20;106246;1257;61292;-85
2023/09/27 07:08:20;;;;;;;16.20;9.60;;;;;;;26.47;75.58;101940.35;106128;1262;61234;-86
2023/09/27 07:10:48;;;;;;;17.10;10.10;;;;;;;26.59;72.98;101944.76;106057;1262;65845;-87
2023/09/27 07:13:15;;;;;;;18.60;11.10;;;;;;;26.71;70.63;101941.21;106103;1258;61376;-87
2023/09/27 07:15:45;;;;;;;17.20;11.30;;;;;;;26.81;70.50;101941.75;105915;1260;62947;-87
2023/09/27 07:18:12;;;;;;;21.20;11.40;;;;;;;26.95;68.91;101941.45;106145;1262;61238;-87
2023/09/27 07:20:40;;;;;;;17.40;9.80;;;;;;;27.01;67.95;101940.35;105955;1262;61511;-87
2023/09/27 07:23:08;;;;;;;17.10;9.80;;;;;;;27.22;66.62;101941.52;106091;1257;64665;-87
2023/09/27 07:25:37;;;;;;;14.60;8.90;;;;;;;27.37;62.98;101939.88;106001;1261;61233;-87
2023/09/27 07:28:05;;;;;;;15.80;9.50;;;;;;;27.50;60.97;101944.16;106629;1258;64126;-87
2023/09/27 07:30:33;;;;;;;17.40;9.80;;;;;;;27.66;60.77;101944.90;106096;1258;62122;-87
2023/09/27 07:33:03;;;;;;;16.80;10.00;;;;;;;27.82;60.69;101944.77;106044;1257;60977;-86
2023/09/27 07:35:33;;;;;;;16.50;9.80;;;;;;;27.99;58.95;101946.09;106227;1257;65099;-86
2023/09/27 07:38:01;;;;;;;17.10;9.50;;;;;;;28.09;58.06;101939.61;106117;1257;61368;-87
2023/09/27 07:40:29;;;;;;;16.20;10.80;;;;;;;28.15;57.86;101940.89;106063;1257;63936;-87
2023/09/27 07:42:56;;;;;;;15.70;9.40;;;;;;;28.17;57.59;101941.25;105935;1257;61684;-87
2023/09/27 07:45:28;;;;;;;18.00;10.00;;;;;;;28.19;57.95;101941.20;106132;1261;61186;-87
2023/09/27 07:47:55;;;;;;;18.40;10.50;;;;;;;28.22;57.03;101942.72;106066;1258;67304;-87
2023/09/27 07:50:42;;;;;;;19.50;10.40;;;;;;;28.32;55.31;101942.64;106148;1262;61108;-87
2023/09/27 07:53:09;;;;;;;14.10;9.20;;;;;;;28.36;53.65;101938.71;105961;1257;62891;-87
2023/09/27 07:55:57;;;;;;;17.90;9.30;;;;;;;28.29;53.71;101935.03;105799;1258;61894;-87
2023/09/27 07:58:25;;;;;;;16.70;9.20;;;;;;;28.40;52.83;101933.59;106101;1257;61291;-87
2023/09/27 08:00:52;;;;;;;19.10;9.90;;;;;;;28.53;50.46;101938.42;106141;1257;66131;-86
2023/09/27 08:03:21;;;;;;;18.90;9.40;;;;;;;28.63;49.77;101933.76;105965;1258;61175;-88
2023/09/27 08:05:49;;;;;;;15.90;9.30;;;;;;;28.70;50.28;101934.86;105971;1260;64100;-87
2023/09/27 08:08:16;;;;;;;16.10;9.00;;;;;;;28.84;49.82;101934.93;105917;1258;61251;-87
2023/09/27 08:10:45;;;;;;;16.30;9.30;;;;;;;29.03;49.21;101937.27;105892;1262;61160;-88
2023/09/27 08:13:13;;;;;;;15.00;9.00;;;;;;;29.17;49.09;101934.91;105922;1258;65989;-88
2023/09/27 08:15:41;;;;;;;19.20;9.90;;;;;;;29.30;49.16;101936.21;107102;1259;61182;-88
2023/09/27 08:18:08;;;;;;;16.60;9.10;;;;;;;29.43;47.86;101935.66;106030;1257;64057;-87
2023/09/27 08:20:35;;;;;;;12.90;8.10;;;;;;;29.54;46.98;101935.16;106127;1259;61266;-87
2023/09/27 08:23:03;;;;;;;15.20;8.00;;;;;;;29.65;46.93;101935.19;106144;1257;61366;-87
2023/09/27 08:25:30;;;;;;;18.00;9.00;;;;;;;29.72;46.60;101930.59;105967;1262;66999;-86
2023/09/27 08:27:57;;;;;;;14.10;8.20;;;;;;;29.80;47.29;101928.55;106045;1262;61259;-87
2023/09/27 08:30:24;;;;;;;16.30;8.90;;;;;;;29.90;46.93;101928.16;106178;1258;63931;-87
2023/09/27 08:32:51;;;;;;;14.40;8.20;;;;;;;30.05;46.82;101930.09;106087;1258;61131;-86
2023/09/27 08:35:19;;;;;;;12.80;8.40;;;;;;;30.24;46.35;101927.76;106023;1258;61129;-88
2023/09/27 08:37:46;;;;;;;16.70;8.50;;;;;;;30.42;45.94;101920.54;106192;1257;66111;-87
2023/09/27 08:40:13;;;;;;;18.60;8.90;;;;;;;30.59;45.60;101919.41;106002;1258;61321;-87
2023/09/27 08:42:41;;;;;;;13.60;8.40;;;;;;;30.73;45.04;101918.06;106070;1257;63731;-87
2023/09/27 08:45:12;;;;;;;12.90;8.20;;;;;;;30.84;44.38;101919.44;106303;1262;61258;-88
2023/09/27 08:47:41;;;;;;;14.90;8.40;;;;;;;30.96;44.54;101921.77;106164;1262;61237;-88
2023/09/27 08:50:14;;;;;;;14.40;8.40;;;;;;;31.11;44.29;101918.89;106239;1258;65352;-87
2023/09/27 08:52:45;;;;;;;16.70;8.20;;;;;;;31.29;43.83;101915.70;106331;1257;61370;-89
2023/09/27 08:55:15;;;;;;;20.20;7.90;;;;;;;31.50;42.88;101912.86;106121;1257;65280;-88
2023/09/27 08:57:47;;;;;;;13.30;8.10;;;;;;;31.58;42.46;101907.95;106019;1262;61360;-89
2023/09/27 09:00:16;;;;;;;13.70;8.30;;;;;;;31.65;41.96;101907.36;106067;1257;61171;-88
2023/09/27 09:02:43;;;;;;;11.60;7.00;;;;;;;31.72;41.55;101906.70;106200;1258;64778;-87
2023/09/27 09:05:13;;;;;;;13.00;7.80;;;;;;;31.83;40.47;101907.11;106048;1257;61276;-89
2023/09/27 09:07:40;;;;;;;14.60;7.50;;;;;;;31.79;40.39;101908.13;106038;1259;64057;-87
2023/09/27 09:10:13;;;;;;;12.90;6.90;;;;;;;31.76;40.12;101906.65;106117;1258;61350;-89
2023/09/27 09:12:44;;;;;;;11.60;7.50;;;;;;;31.79;40.13;101904.57;106213;1258;61360;-88
2023/09/27 09:15:26;;;;;;;15.60;8.00;;;;;;;31.79;40.19;101902.48;106075;1259;67045;-89
2023/09/27 09:17:57;;;;;;;15.70;8.20;;;;;;;31.82;39.96;101896.86;105943;1257;61165;-87
2023/09/27 09:20:32;;;;;;;11.80;7.10;;;;;;;31.88;38.96;101892.86;105947;1258;64762;-88
2023/09/27 09:23:07;;;;;;;12.10;6.70;;;;;;;31.97;38.52;101889.65;105939;1259;61185;-86
2023/09/27 09:25:43;;;;;;;12.80;7.00;;;;;;;32.08;38.34;101889.48;106152;1258;61346;-87
2023/09/27 09:28:13;;;;;;;11.70;6.20;;;;;;;32.28;37.36;101886.79;106144;1259;67233;-86
2023/09/27 09:30:40;;;;;;;13.40;5.60;;;;;;;32.41;36.18;101884.04;105932;1258;61359;-88
2023/09/27 09:33:19;;;;;;;14.20;6.50;;;;;;;32.52;36.20;101883.38;106213;1257;65158;-86
2023/09/27 09:35:47;;;;;;;9.10;6.10;;;;;;;32.59;35.42;101880.67;106069;1257;61130;-89
2023/09/27 09:38:24;;;;;;;13.40;6.20;;;;;;;32.65;34.98;101873.92;105982;1260;61295;-87
2023/09/27 09:40:59;;;;;;;9.00;6.20;;;;;;;32.64;34.71;101873.44;106190;1257;66055;-87
2023/09/27 09:43:33;;;;;;;13.70;6.30;;;;;;;32.60;34.20;101871.80;107261;1257;61286;-84
2023/09/27 09:46:08;;;;;;;13.20;6.10;;;;;;;32.65;34.23;101867.29;106709;1257;64164;-86
2023/09/27 09:48:36;;;;;;;12.20;6.10;;;;;;;32.76;34.58;101864.10;106246;1262;61353;-84
2023/09/27 09:51:06;;;;;;;11.40;6.30;;;;;;;32.89;34.33;101862.36;106071;1257;60336;-88
2023/09/27 09:53:40;;;;;;;15.80;6.00;;;;;;;33.02;33.52;101859.48;106164;1259;67190;-86
2023/09/27 09:56:09;;;;;;;9.50;6.40;;;;;;;33.03;32.95;101859.02;106105;1260;61253;-86
2023/09/27 09:58:59;;;;;;;9.20;6.00;;;;;;;33.00;33.15;101857.22;106209;1258;63924;-88
2023/09/27 10:01:28;;;;;;;10.10;5.40;;;;;;;33.01;33.65;101854.64;106176;1257;61362;-87
2023/09/27 10:03:56;;;;;;;11.70;5.80;;;;;;;33.04;33.33;101857.16;105968;1259;61120;-86
2023/09/27 10:06:23;;;;;;;10.60;5.40;;;;;;;33.16;32.53;101850.32;106016;1264;65951;-88
2023/09/27 10:09:13;;;;;;;15.20;5.80;;;;;;;33.22;32.16;101848.70;106031;1262;61363;-86
2023/09/27 10:11:41;;;;;;;13.70;5.70;;;;;;;33.33;31.52;101848.73;106135;1258;64906;-88
2023/09/27 10:14:10;;;;;;;10.50;5.60;;;;;;;33.37;31.00;101844.20;106042;1258;61261;-86
2023/09/27 10:16:37;;;;;;;9.10;5.40;;;;;;;33.46;30.67;101842.02;106285;1257;61546;-87
2023/09/27 10:19:05;;;;;;;9.90;5.20;;;;;;;33.57;30.42;101840.98;106142;1262;66913;-86
2023/09/27 10:21:32;;;;;;;10.40;5.60;;;;;;;33.72;30.41;101836.36;106099;1262;61335;-88
2023/09/27 10:24:01;;;;;;;13.10;6.30;;;;;;;33.75;29.93;101838.30;106044;1259;64047;-86
2023/09/27 10:26:28;;;;;;;10.60;5.70;;;;;;;33.77;29.56;101839.04;106189;1262;61264;-86
2023/09/27 10:29:35;;;;;;;9.70;5.30;;;;;;;33.89;29.66;101833.67;106011;1257;60341;-87
2023/09/27 10:31:58;;;;;;;9.40;5.20;;;;;;;34.02;29.58;101832.67;106016;1257;64497;-87
2023/09/27 10:34:28;;;;;;;10.80;5.70;;;;;;;34.11;28.50;101834.06;106007;1257;61361;-89
2023/09/27 10:37:00;;;;;;;8.70;5.30;;;;;;;34.16;28.63;101830.40;106191;1257;62566;-88
2023/09/27 10:40:20;;;;;;;7.30;5.10;;;;;;;34.24;28.90;101826.56;105939;1257;61230;-86
2023/09/27 10:42:48;;;;;;;12.60;6.00;;;;;;;34.32;28.28;101823.85;106021;1257;61254;-89
2023/09/27 10:45:16;;;;;;;9.90;5.70;;;;;;;34.41;27.66;101822.86;106176;1262;65963;-89
2023/09/27 10:47:43;;;;;;;11.90;6.00;;;;;;;34.42;27.51;101821.87;106098;1257;61448;-89
2023/09/27 10:50:10;;;;;;;9.30;6.10;;;;;;;34.40;27.33;101826.35;106067;1260;62557;-88
2023/09/27 10:52:39;;;;;;;8.90;5.00;;;;;;;34.38;27.40;101819.55;106043;1257;61309;-89
2023/09/27 10:55:13;;;;;;;9.70;6.10;;;;;;;34.42;27.50;101818.31;106035;1258;61128;-89
2023/09/27 10:57:41;;;;;;;10.30;5.90;;;;;;;34.41;27.29;101813.95;106189;1259;67144;-87
2023/09/27 11:00:11;;;;;;;9.90;5.80;;;;;;;34.40;27.30;101810.13;106079;1257;61252;-89
2023/09/27 11:02:38;;;;;;;;;;;;;;;34.46;27.88;101810.27;106229;1258;63955;-90
2023/09/27 11:05:06;;;;;;;;;;;;;;;34.61;27.86;101808.77;106173;1257;61347;-87
2023/09/27 11:07:43;;;;;;;;;;;;;;;34.64;26.74;101803.89;106078;1259;61257;-89
2023/09/27 11:10:10;;;;;;;;;;;;;;;34.70;26.18;101801.91;106265;1260;64625;-87
2023/09/27 11:12:37;;;;;;;;;;;;;;;34.80;26.41;101802.42;106087;1257;61714;-87
2023/09/27 11:15:04;;;;;;;;;;;;;;;34.82;26.02;101798.84;106337;1258;65126;-90
2023/09/27 11:17:31;;;;;;;;;;;;;;;34.76;26.55;101797.25;106169;1259;61261;-87
2023/09/27 11:19:59;;;;;;;;;;;;;;;34.74;26.79;101798.64;106128;1259;61136;-89
2023/09/27 11:22:26;;;;;;;;;;;;;;;34.67;26.50;101793.01;106151;1257;65853;-87
2023/09/27 11:24:53;;;;;;;;;;;;;;;34.61;26.24;101790.92;107549;1257;61230;-86
2023/09/27 11:27:20;;;;;;;;;;;;;;;34.60;25.72;101791.91;106245;1259;64971;-86
2023/09/27 11:29:51;;;;;;;;;;;;;;;34.60;25.96;101791.25;106413;1257;62630;-89
2023/09/27 11:32:18;;;;;;;;;;;;;;;34.56;25.41;101787.86;107895;1257;58645;-87
2023/09/27 11:34:55;;;;;;;;;;;;;;;34.54;25.23;101787.54;106658;1257;66910;-90
2023/09/27 11:37:25;;;;;;;;;;;;;;;34.49;25.43;101781.80;106623;1262;61270;-86
2023/09/27 11:39:54;;;;;;;;;;;;;;;34.43;24.92;101782.80;105985;1257;64925;-89
2023/09/27 11:42:21;;;;;;;;;;;;;;;34.39;24.85;101779.35;106146;1259;61221;-89
2023/09/27 11:45:04;;;;;;;;;;;;;;;34.40;25.03;101777.96;106720;1258;61265;-90
2023/09/27 11:47:33;;;;;;;;;;;;;;;34.41;24.85;101775.03;106401;1257;66065;-87
2023/09/27 11:50:00;;;;;;;;;;;;;;;34.40;24.70;101772.85;106524;1261;61227;-89
2023/09/27 11:52:27;;;;;;;;;;;;;;;34.41;24.87;101767.66;106584;1257;63751;-86
2023/09/27 11:54:54;;;;;;;;;;;;;;;34.43;25.31;101762.13;106480;1257;61161;-87
2023/09/27 11:57:21;;;;;;;;;;;;;;;34.36;24.69;101758.27;106258;1256;61235;-89
2023/09/27 11:59:48;;;;;;;;;;;;;;;34.30;24.58;101758.55;106411;1260;66171;-86
2023/09/27 12:02:18;;;;;;;;;;;;;;;34.30;24.63;101754.48;106385;1257;61344;-88
2023/09/27 12:04:54;;;;;;;;;;;;;;;34.32;24.20;101752.38;106385;1259;65168;-86
2023/09/27 12:07:22;;;;;;;;;;;;;;;34.34;24.19;101752.28;106412;1257;61106;-88
2023/09/27 12:09:50;;;;;;;;;;;;;;;34.30;24.11;101747.85;106009;1257;60911;-87
2023/09/27 12:12:17;;;;;;;;;;;;;;;34.26;24.05;101747.38;106089;1257;66214;-89
2023/09/27 12:14:44;;;;;;;;;;;;;;;34.28;23.89;101744.95;106170;1258;61267;-86
2023/09/27 12:17:11;;;;;;;;;;;;;;;34.35;23.81;101741.83;106502;1258;63825;-87
2023/09/27 12:19:38;;;;;;;;;;;;;;;34.45;23.78;101739.91;106106;1259;61229;-88
2023/09/27 12:22:06;;;;;;;;;;;;;;;34.55;24.01;101738.95;106115;1259;61238;-89
2023/09/27 12:24:33;;;;;;;;;;;;;;;34.49;24.02;101735.34;106289;1258;67017;-86
2023/09/27 12:27:00;;;;;;;;;;;;;;;34.44;23.77;101739.73;106141;1257;61259;-90
2023/09/27 12:29:27;;;;;;;;;;;;;;;34.54;23.83;101736.21;106056;1261;65112;-86
2023/09/27 12:31:54;;;;;;;;;;;;;;;34.59;24.02;101734.24;106255;1260;61283;-86
2023/09/27 12:34:21;;;;;;;;;;;;;;;34.65;24.00;101728.70;106093;1262;61237;-89
2023/09/27 12:36:48;;;;;;;;;;;;;;;34.64;23.53;101727.34;106202;1257;64622;-87
2023/09/27 12:39:16;;;;;;;;;;;;;;;34.57;23.64;101729.23;106224;1258;61260;-89
2023/09/27 12:41:47;;;;;;;;;;;;;;;34.58;23.88;101724.02;106042;1259;65309;-87
2023/09/27 12:44:14;;;;;;;;;;;;;;;34.48;23.38;101726.92;106268;1259;61268;-89
2023/09/27 12:46:49;;;;;;;;;;;;;;;34.48;23.43;101722.61;105967;1262;61241;-89
2023/09/27 12:49:18;;;;;;;;;;;;;;;34.49;23.59;101717.02;106133;1260;65262;-88
2023/09/27 12:51:45;;;;;;;;;;;;;;;34.44;23.63;101720.54;106188;1259;61348;-87
2023/09/27 12:54:16;;;;;;;;;;;;;;;34.42;23.55;101716.58;106069;1257;64749;-88
2023/09/27 12:56:43;;;;;;;;;;;;;;;34.41;23.07;101715.13;106124;1258;61961;-87
2023/09/27 12:59:11;;;;;;;;;;;;;;;34.40;23.03;101709.13;106159;1261;61114;-87
2023/09/27 13:01:38;;;;;;;;;;;;;;;34.42;23.16;101711.80;106051;1258;64774;-88
2023/09/27 13:04:07;;;;;;;;;;;;;;;34.38;23.43;101711.98;105916;1259;61400;-87
2023/09/27 13:06:34;;;;;;;;;;;;;;;34.30;23.25;101712.52;105942;1258;64084;-87
2023/09/27 13:09:01;;;;;;;;;;;;;;;34.25;23.44;101709.05;106042;1259;61103;-89
2023/09/27 13:11:28;;;;;;;;;;;;;;;34.21;23.79;101708.42;106105;1258;61129;-86
2023/09/27 13:13:55;;;;;;;;;;;;;;;34.14;24.19;101705.46;106075;1261;64621;-87
2023/09/27 13:16:23;;;;;;;;;;;;;;;34.17;24.32;101705.68;106130;1259;61112;-88
2023/09/27 13:18:51;;;;;;;;;;;;;;;34.20;24.05;101706.48;106101;1262;65501;-88
2023/09/27 13:21:21;;;;;;;;;;;;;;;34.19;24.21;101704.30;106087;1257;61273;-87
2023/09/27 13:23:48;;;;;;;;;;;;;;;34.16;23.81;101707.16;106065;1262;61171;-88
2023/09/27 13:26:15;;;;;;;;;;;;;;;34.14;23.81;101704.09;106037;1258;65682;-86
2023/09/27 13:28:42;;;;;;;;;;;;;;;34.07;23.89;101706.20;106118;1258;61362;-86
2023/09/27 13:31:09;;;;;;;;;;;;;;;33.96;24.22;101703.73;106128;1257;65242;-86
2023/09/27 13:33:36;;;;;;;;;;;;;;;33.88;24.67;101702.45;106164;1257;61241;-88